Time;durP1;ratioP1;P1;durP2;ratioP2;P2;SDS_P1;SDS_P2;PMS_P1;PMS_P2;Temp;Humidity;BMP_temperature;BMP_pressure;BME280_temperature;BME280_humidity;BME280_pressure;Samples;Min_cycle;Max_cycle;Signal;HPM_P1;HPM_P2
2021/01/14 00:00:33;;;;;;;10.07;6.30;;;4.60;99.90;;;;;;5010461;28;20751;-54
2021/01/14 00:03:00;;;;;;;9.32;5.50;;;4.60;99.90;;;;;;5008817;28;20854;-55
2021/01/14 00:05:26;;;;;;;8.15;4.43;;;4.70;99.90;;;;;;5010527;28;20424;-54
2021/01/14 00:07:53;;;;;;;7.90;4.50;;;4.50;99.90;;;;;;5011792;28;20846;-54
2021/01/14 00:10:20;;;;;;;8.00;4.57;;;4.50;99.90;;;;;;5010834;28;20416;-54
2021/01/14 00:12:47;;;;;;;7.05;4.30;;;4.60;99.90;;;;;;5011034;28;20535;-54
2021/01/14 00:15:15;;;;;;;7.43;4.30;;;4.60;99.90;;;;;;5010309;28;20728;-54
2021/01/14 00:17:41;;;;;;;8.40;5.20;;;4.50;99.90;;;;;;5010463;28;20407;-54
2021/01/14 00:20:16;;;;;;;7.70;4.88;;;5.60;99.90;;;;;;5012140;28;20412;-54
2021/01/14 00:22:43;;;;;;;7.82;4.90;;;4.70;99.90;;;;;;5010461;28;20396;-54
2021/01/14 00:25:13;;;;;;;7.70;4.80;;;4.70;99.90;;;;;;5010918;28;20498;-54
2021/01/14 00:27:39;;;;;;;9.60;4.57;;;4.60;99.90;;;;;;5011180;28;20396;-54
2021/01/14 00:30:10;;;;;;;8.25;4.93;;;4.70;99.90;;;;;;5009538;28;20396;-54
2021/01/14 00:32:36;;;;;;;8.02;4.80;;;4.60;99.90;;;;;;5010787;28;20401;-54
2021/01/14 00:35:02;;;;;;;7.43;4.40;;;4.60;99.90;;;;;;5010729;28;20762;-54
2021/01/14 00:40:14;;;;;;;8.48;5.13;;;5.20;99.90;;;;;;5010129;28;20514;-54
2021/01/14 00:42:40;;;;;;;7.50;4.50;;;4.60;99.90;;;;;;5010814;28;20403;-54
2021/01/14 00:45:06;;;;;;;7.30;3.80;;;4.80;99.90;;;;;;5010752;28;20389;-54
2021/01/14 00:47:35;;;;;;;8.05;4.40;;;4.50;99.90;;;;;;5009772;28;20401;-54
2021/01/14 00:50:02;;;;;;;7.55;4.65;;;4.60;99.90;;;;;;5010004;28;20925;-54
2021/01/14 00:52:27;;;;;;;8.50;4.68;;;4.90;99.90;;;;;;5011234;28;20428;-54
2021/01/14 00:54:53;;;;;;;8.10;5.00;;;4.60;99.90;;;;;;5009645;28;20696;-54
2021/01/14 00:57:18;;;;;;;9.00;4.80;;;4.50;99.90;;;;;;5011243;28;20396;-54
2021/01/14 00:59:44;;;;;;;8.90;5.17;;;4.40;99.90;;;;;;5008756;28;20417;-54
2021/01/14 01:02:13;;;;;;;8.97;4.70;;;4.50;99.90;;;;;;5009777;28;20420;-54
2021/01/14 01:04:39;;;;;;;9.95;4.50;;;6.20;99.90;;;;;;5010333;28;20404;-54
2021/01/14 01:07:06;;;;;;;8.57;4.97;;;4.40;99.90;;;;;;5010607;28;20444;-54
2021/01/14 01:09:32;;;;;;;8.82;4.80;;;4.40;99.90;;;;;;5009390;28;20411;-54
2021/01/14 01:11:58;;;;;;;8.90;5.03;;;6.80;99.90;;;;;;5009429;28;20404;-54
2021/01/14 01:14:23;;;;;;;8.50;5.00;;;4.50;99.90;;;;;;5011367;28;20908;-54
2021/01/14 01:16:54;;;;;;;10.70;5.00;;;4.40;99.90;;;;;;5010270;28;20388;-54
2021/01/14 01:19:19;;;;;;;9.98;5.50;;;4.40;99.90;;;;;;5009487;28;20460;-54
2021/01/14 01:21:45;;;;;;;9.00;5.33;;;4.40;99.90;;;;;;5008942;28;20429;-54
2021/01/14 01:24:11;;;;;;;8.68;4.85;;;4.40;99.90;;;;;;5010744;28;20388;-54
2021/01/14 01:26:37;;;;;;;9.77;5.57;;;4.70;99.90;;;;;;5008581;28;20455;-54
2021/01/14 01:29:03;;;;;;;9.15;5.40;;;4.30;99.90;;;;;;5010877;28;20813;-54
2021/01/14 01:31:28;;;;;;;9.63;5.73;;;4.30;99.90;;;;;;5008368;28;20412;-54
2021/01/14 01:33:54;;;;;;;9.82;6.15;;;4.30;99.90;;;;;;5010545;28;20526;-54
2021/01/14 01:36:20;;;;;;;9.60;5.82;;;4.30;99.90;;;;;;5010775;28;20389;-54
2021/01/14 01:38:46;;;;;;;10.55;6.30;;;4.30;99.90;;;;;;5008438;28;21204;-54
2021/01/14 01:41:11;;;;;;;9.30;5.90;;;5.70;99.90;;;;;;5009440;28;20863;-54
2021/01/14 01:43:37;;;;;;;11.05;6.07;;;4.20;99.90;;;;;;5008477;28;20397;-54
2021/01/14 01:46:05;;;;;;;9.02;6.00;;;4.20;99.90;;;;;;5010717;28;20377;-54
2021/01/14 01:48:31;;;;;;;13.13;6.10;;;6.40;99.90;;;;;;5009247;28;20396;-54
2021/01/14 01:50:59;;;;;;;10.10;6.03;;;5.90;99.90;;;;;;5009339;28;20409;-54
2021/01/14 01:53:26;;;;;;;11.52;7.20;;;4.10;99.90;;;;;;5010700;28;20413;-54
2021/01/14 01:55:52;;;;;;;11.52;7.30;;;5.40;99.90;;;;;;5008300;28;20523;-54
2021/01/14 01:58:22;;;;;;;10.20;6.30;;;4.10;99.90;;;;;;5010327;28;20377;-54
2021/01/14 02:00:49;;;;;;;11.13;5.93;;;4.10;99.90;;;;;;5008212;28;20454;-54
2021/01/14 02:03:15;;;;;;;11.65;6.82;;;4.80;99.90;;;;;;5010199;28;20889;-54
2021/01/14 02:05:41;;;;;;;11.10;6.40;;;4.70;99.90;;;;;;5008258;28;20404;-54
2021/01/14 02:08:30;;;;;;;10.10;6.10;;;5.80;99.90;;;;;;5010358;28;20486;-54
2021/01/14 02:11:03;;;;;;;10.98;6.68;;;4.10;99.90;;;;;;5009535;28;20369;-54
2021/01/14 02:13:38;;;;;;;10.27;6.00;;;4.10;99.90;;;;;;5007957;28;20417;-54
2021/01/14 02:16:05;;;;;;;10.43;6.05;;;4.10;99.90;;;;;;5010353;28;20385;-54
2021/01/14 02:18:31;;;;;;;9.98;5.80;;;4.00;99.90;;;;;;5008277;28;20417;-54
2021/01/14 02:21:00;;;;;;;10.07;4.80;;;4.10;99.90;;;;;;5010226;28;20391;-54
2021/01/14 02:23:43;;;;;;;8.20;4.57;;;4.70;99.90;;;;;;5009308;28;20451;-54
2021/01/14 02:26:14;;;;;;;7.68;4.15;;;3.70;99.90;;;;;;4993739;28;20403;-54
2021/01/14 02:28:42;;;;;;;8.77;4.30;;;3.60;99.90;;;;;;5008588;28;20763;-54
2021/01/14 02:31:08;;;;;;;6.00;3.50;;;5.10;99.90;;;;;;5010258;28;20397;-54
2021/01/14 02:33:34;;;;;;;5.83;3.30;;;6.00;99.90;;;;;;5008152;28;20411;-54
2021/01/14 02:36:00;;;;;;;6.47;3.53;;;4.30;99.90;;;;;;5010038;28;20376;-53
2021/01/14 02:38:25;;;;;;;7.07;3.60;;;4.20;99.90;;;;;;5010056;28;20478;-54
2021/01/14 02:40:51;;;;;;;6.77;3.50;;;4.70;99.90;;;;;;5009474;28;20423;-54
2021/01/14 02:43:16;;;;;;;7.13;3.40;;;3.80;99.90;;;;;;5011607;28;20750;-54
2021/01/14 02:45:42;;;;;;;5.93;3.22;;;3.40;99.90;;;;;;5013217;28;20793;-54
2021/01/14 02:48:11;;;;;;;7.27;4.40;;;3.30;99.90;;;;;;5013939;28;20443;-54
2021/01/14 02:50:40;;;;;;;6.97;3.50;;;3.20;99.90;;;;;;5013225;28;20454;-54
2021/01/14 02:53:07;;;;;;;5.93;2.88;;;3.20;99.90;;;;;;5013125;28;20500;-54
2021/01/14 02:55:34;;;;;;;5.70;2.80;;;5.10;99.90;;;;;;5012832;28;20937;-54
2021/01/14 02:57:59;;;;;;;5.93;3.05;;;3.30;99.90;;;;;;5013448;28;20467;-54
2021/01/14 03:00:25;;;;;;;5.82;2.83;;;4.50;99.90;;;;;;5013764;28;20424;-54
2021/01/14 03:02:51;;;;;;;6.70;3.30;;;5.30;99.90;;;;;;5012934;28;20385;-54
2021/01/14 03:05:16;;;;;;;6.60;3.00;;;4.30;99.90;;;;;;5013549;28;20391;-54
2021/01/14 03:07:42;;;;;;;7.03;3.28;;;3.30;99.90;;;;;;5012767;28;20711;-54
2021/01/14 03:10:08;;;;;;;5.47;2.80;;;3.30;99.90;;;;;;5013929;28;20451;-54
2021/01/14 03:12:34;;;;;;;6.80;2.70;;;3.20;99.90;;;;;;5012065;28;20452;-53
2021/01/14 03:14:59;;;;;;;5.40;3.10;;;3.20;99.90;;;;;;5012177;28;20388;-54
2021/01/14 03:17:25;;;;;;;6.90;3.10;;;4.70;99.90;;;;;;5013782;28;20377;-54
2021/01/14 03:19:55;;;;;;;7.60;2.90;;;4.60;99.90;;;;;;5012677;28;20427;-54
2021/01/14 03:22:20;;;;;;;8.50;3.30;;;3.20;99.90;;;;;;5013609;28;20391;-53
2021/01/14 03:24:46;;;;;;;6.20;2.70;;;3.00;99.90;;;;;;5012603;28;20484;-54
2021/01/14 03:27:11;;;;;;;7.13;3.10;;;3.00;99.90;;;;;;5013108;28;20389;-54
2021/01/14 03:29:37;;;;;;;5.70;3.00;;;2.90;99.90;;;;;;5012493;28;20842;-54
2021/01/14 03:32:03;;;;;;;5.60;2.80;;;4.50;99.90;;;;;;5013398;28;20401;-54
2021/01/14 03:34:29;;;;;;;6.47;3.10;;;2.80;99.90;;;;;;5013547;28;20404;-54
2021/01/14 03:37:00;;;;;;;7.25;3.20;;;4.00;99.90;;;;;;5012633;28;20387;-54
2021/01/14 03:39:27;;;;;;;7.20;3.20;;;4.50;99.90;;;;;;5013235;28;20832;-54
2021/01/14 03:41:54;;;;;;;6.68;3.55;;;3.00;99.90;;;;;;5012017;28;20785;-54
2021/01/14 03:44:20;;;;;;;6.20;3.10;;;3.10;99.90;;;;;;5013128;28;20391;-54
2021/01/14 03:46:47;;;;;;;6.70;3.20;;;2.90;99.90;;;;;;5012315;28;20909;-54
2021/01/14 03:49:13;;;;;;;7.30;3.40;;;2.80;99.90;;;;;;5012918;28;20392;-54
2021/01/14 03:51:39;;;;;;;5.90;3.33;;;5.00;99.90;;;;;;5012158;28;20393;-54
2021/01/14 03:54:05;;;;;;;6.47;3.17;;;2.90;99.90;;;;;;5012493;28;20742;-54
2021/01/14 03:56:38;;;;;;;8.30;3.70;;;2.90;99.90;;;;;;5011962;28;20381;-53
2021/01/14 03:59:05;;;;;;;7.07;3.58;;;2.80;99.90;;;;;;5012812;28;20443;-54
2021/01/14 04:01:31;;;;;;;8.48;3.92;;;4.40;99.90;;;;;;5012444;28;20889;-54
2021/01/14 04:03:57;;;;;;;7.78;3.80;;;2.70;99.90;;;;;;5012585;28;20401;-54
2021/01/14 04:06:33;;;;;;;7.10;3.47;;;2.70;99.90;;;;;;5012556;28;20396;-54
2021/01/14 04:08:59;;;;;;;6.80;3.50;;;2.60;99.90;;;;;;5012549;28;20479;-54
2021/01/14 04:11:25;;;;;;;9.30;4.15;;;2.50;99.90;;;;;;5012410;28;20388;-54
2021/01/14 04:13:51;;;;;;;8.65;3.60;;;2.80;99.90;;;;;;5011508;28;20415;-53
2021/01/14 04:16:17;;;;;;;11.20;4.80;;;3.80;99.90;;;;;;5011971;28;20516;-53
2021/01/14 04:18:43;;;;;;;9.77;4.50;;;3.60;99.90;;;;;;5010164;28;20913;-53
2021/01/14 04:21:08;;;;;;;7.20;3.73;;;4.30;99.90;;;;;;5011849;28;20380;-54
2021/01/14 04:23:34;;;;;;;10.75;4.68;;;2.90;99.90;;;;;;5011141;28;20385;-54
2021/01/14 04:26:01;;;;;;;8.93;4.60;;;5.10;99.90;;;;;;5012183;28;20692;-54
2021/01/14 04:28:28;;;;;;;7.88;4.40;;;2.40;99.90;;;;;;5011919;28;20391;-54
2021/01/14 04:30:53;;;;;;;9.60;4.83;;;2.30;99.90;;;;;;5008612;28;20415;-54
2021/01/14 04:33:19;;;;;;;8.03;4.43;;;3.30;99.90;;;;;;5012154;28;20385;-53
2021/01/14 04:35:50;;;;;;;7.60;4.60;;;4.50;99.90;;;;;;5009594;28;20467;-54
2021/01/14 04:38:17;;;;;;;9.68;5.00;;;3.20;99.90;;;;;;5011153;28;20866;-54
2021/01/14 04:40:44;;;;;;;9.77;4.75;;;2.40;99.90;;;;;;5010213;28;20431;-54
2021/01/14 04:43:12;;;;;;;10.75;5.65;;;4.90;99.90;;;;;;5010073;28;20427;-54
2021/01/14 04:45:41;;;;;;;10.77;5.47;;;5.20;99.90;;;;;;5010932;28;20439;-54
2021/01/14 04:48:11;;;;;;;9.50;4.88;;;4.60;99.90;;;;;;5011970;28;20400;-53
2021/01/14 04:50:37;;;;;;;12.00;5.30;;;4.90;99.90;;;;;;5009050;28;20451;-54
2021/01/14 04:53:05;;;;;;;13.18;5.15;;;2.50;99.90;;;;;;5011652;28;20372;-54
2021/01/14 04:55:42;;;;;;;9.67;4.67;;;3.50;99.90;;;;;;5009976;28;20396;-54
2021/01/14 04:58:19;;;;;;;9.43;5.45;;;3.10;99.90;;;;;;5011516;28;20393;-54
2021/01/14 05:00:49;;;;;;;9.98;5.65;;;5.20;99.90;;;;;;5009021;28;20447;-54
2021/01/14 05:03:23;;;;;;;13.02;6.25;;;2.50;99.90;;;;;;5010082;28;20397;-54
2021/01/14 05:05:50;;;;;;;11.35;5.57;;;2.60;99.90;;;;;;5009467;28;20393;-54
2021/01/14 05:08:17;;;;;;;9.93;5.60;;;2.60;99.90;;;;;;5011359;28;20389;-54
2021/01/14 05:10:44;;;;;;;9.48;5.00;;;2.50;99.90;;;;;;5008946;28;20405;-54
2021/01/14 05:13:11;;;;;;;10.48;5.70;;;3.60;99.90;;;;;;5011036;28;20416;-54
2021/01/14 05:15:38;;;;;;;9.88;5.43;;;2.80;99.90;;;;;;5008009;28;20729;-54
2021/01/14 05:18:04;;;;;;;12.32;6.07;;;4.50;99.90;;;;;;5005145;28;20905;-53
2021/01/14 05:20:30;;;;;;;9.93;5.70;;;2.40;99.90;;;;;;5008616;28;20461;-54
2021/01/14 05:23:04;;;;;;;11.50;6.40;;;4.10;99.90;;;;;;4998110;28;20395;-53
2021/01/14 05:25:31;;;;;;;13.30;7.60;;;2.30;99.90;;;;;;4990212;28;20772;-53
2021/01/14 05:28:14;;;;;;;15.77;8.70;;;5.10;99.90;;;;;;5010398;28;20385;-53
2021/01/14 05:30:42;;;;;;;14.02;8.07;;;2.30;99.90;;;;;;5008751;28;20412;-53
2021/01/14 05:33:12;;;;;;;12.40;7.30;;;4.10;99.90;;;;;;5010857;28;20392;-53
2021/01/14 05:35:47;;;;;;;11.48;6.95;;;2.10;99.90;;;;;;5008731;28;20451;-53
2021/01/14 05:38:30;;;;;;;14.18;7.00;;;3.10;99.90;;;;;;5010819;28;20435;-53
2021/01/14 05:41:11;;;;;;;13.13;6.83;;;2.10;99.90;;;;;;5010242;28;20466;-54
2021/01/14 05:43:56;;;;;;;13.50;6.60;;;2.10;99.90;;;;;;5008593;28;20408;-54
2021/01/14 05:46:27;;;;;;;11.25;6.60;;;2.10;99.90;;;;;;5003129;28;20399;-54
2021/01/14 05:48:57;;;;;;;11.65;6.85;;;2.10;99.90;;;;;;5008828;28;20583;-54
2021/01/14 05:51:28;;;;;;;13.68;6.85;;;3.10;99.90;;;;;;5006842;28;20922;-53
2021/01/14 05:53:58;;;;;;;14.23;7.15;;;3.40;99.90;;;;;;5008239;28;20882;-53
2021/01/14 05:56:35;;;;;;;14.43;7.05;;;2.10;99.90;;;;;;5007780;28;20408;-54
2021/01/14 05:59:11;;;;;;;15.30;6.95;;;3.80;99.90;;;;;;5007831;28;20886;-54
2021/01/14 06:01:50;;;;;;;13.55;7.18;;;3.20;99.90;;;;;;5009601;28;20942;-53
2021/01/14 06:04:22;;;;;;;13.68;7.15;;;2.20;99.90;;;;;;5007742;28;20987;-54
2021/01/14 06:06:50;;;;;;;14.07;7.72;;;2.20;99.90;;;;;;5009569;28;20385;-54
2021/01/14 06:09:18;;;;;;;15.73;8.25;;;2.80;99.90;;;;;;5009044;28;20867;-54
2021/01/14 06:11:44;;;;;;;15.05;8.18;;;3.90;99.90;;;;;;5009733;28;20739;-54
2021/01/14 06:14:25;;;;;;;16.38;8.75;;;4.70;99.90;;;;;;5010608;28;20863;-54
2021/01/14 06:16:51;;;;;;;17.13;8.73;;;2.70;99.90;;;;;;5008367;28;20412;-53
2021/01/14 06:19:17;;;;;;;17.70;8.75;;;2.00;99.90;;;;;;5009578;28;20445;-53
2021/01/14 06:21:47;;;;;;;18.20;9.57;;;2.00;99.90;;;;;;5005590;28;20408;-53
2021/01/14 06:24:37;;;;;;;18.97;9.63;;;2.10;99.90;;;;;;5008314;28;20385;-53
2021/01/14 06:27:05;;;;;;;15.07;8.05;;;3.30;99.90;;;;;;5001776;28;20408;-53
2021/01/14 06:29:36;;;;;;;16.55;8.40;;;4.20;99.90;;;;;;5007156;28;20381;-53
2021/01/14 06:32:15;;;;;;;15.00;8.20;;;2.20;99.90;;;;;;5008837;28;20452;-53
2021/01/14 06:34:46;;;;;;;15.85;9.05;;;2.10;99.90;;;;;;5007566;28;20879;-53
2021/01/14 06:37:22;;;;;;;15.45;9.10;;;4.30;99.90;;;;;;5008105;28;20455;-53
2021/01/14 06:39:49;;;;;;;16.55;8.98;;;2.00;99.90;;;;;;5006934;28;20416;-53
2021/01/14 06:42:20;;;;;;;19.25;8.75;;;5.10;99.90;;;;;;5008291;28;20433;-53
2021/01/14 06:45:01;;;;;;;18.63;9.20;;;2.10;99.90;;;;;;5006347;28;20396;-53
2021/01/14 06:47:42;;;;;;;16.30;8.60;;;2.10;99.90;;;;;;5006400;28;20452;-53
2021/01/14 06:50:23;;;;;;;17.02;9.40;;;2.00;99.90;;;;;;5006065;28;20715;-53
2021/01/14 06:52:50;;;;;;;16.73;9.10;;;2.10;99.90;;;;;;5007057;28;20385;-53
2021/01/14 06:55:20;;;;;;;16.30;9.57;;;2.10;99.90;;;;;;5005312;28;20463;-54
2021/01/14 06:58:00;;;;;;;14.20;8.70;;;2.20;99.90;;;;;;5002729;28;20417;-53
2021/01/14 07:00:29;;;;;;;16.27;8.10;;;2.10;99.90;;;;;;5006452;28;20759;-53
2021/01/14 07:03:12;;;;;;;17.20;9.00;;;3.30;99.90;;;;;;5007737;28;21048;-53
2021/01/14 07:05:39;;;;;;;16.48;9.35;;;2.10;99.90;;;;;;5006653;28;20507;-53
2021/01/14 07:08:38;;;;;;;17.63;10.57;;;3.80;99.90;;;;;;5005563;28;20396;-53
2021/01/14 07:11:06;;;;;;;17.65;10.30;;;1.90;99.90;;;;;;4981799;28;20852;-53
2021/01/14 07:13:36;;;;;;;17.60;10.18;;;2.00;99.90;;;;;;5007297;28;20421;-53
2021/01/14 07:16:03;;;;;;;18.77;10.90;;;2.00;99.90;;;;;;5007304;28;20631;-53
2021/01/14 07:18:34;;;;;;;18.65;10.75;;;2.10;99.90;;;;;;4999859;28;20395;-53
2021/01/14 07:21:04;;;;;;;17.35;10.23;;;2.10;99.90;;;;;;5007137;28;20778;-54
2021/01/14 07:23:33;;;;;;;16.60;9.90;;;2.20;99.90;;;;;;5007783;28;20898;-53
2021/01/14 07:25:59;;;;;;;22.58;10.00;;;5.00;99.90;;;;;;5006978;28;20416;-53
2021/01/14 07:28:25;;;;;;;20.63;9.90;;;2.20;99.90;;;;;;5007377;28;20388;-53
2021/01/14 07:30:51;;;;;;;19.02;10.20;;;2.30;99.90;;;;;;5010004;28;20408;-54
2021/01/14 07:33:28;;;;;;;18.70;10.23;;;3.20;99.90;;;;;;5010012;28;20412;-53
2021/01/14 07:35:54;;;;;;;21.38;11.40;;;3.00;99.90;;;;;;5010937;28;20502;-53
2021/01/14 07:38:21;;;;;;;19.33;10.88;;;2.40;99.90;;;;;;5011581;28;20392;-53
2021/01/14 07:40:53;;;;;;;21.67;11.52;;;2.50;99.90;;;;;;5010475;28;20416;-54
2021/01/14 07:43:30;;;;;;;21.40;12.10;;;2.50;99.90;;;;;;5011185;28;20443;-54
2021/01/14 07:46:23;;;;;;;21.98;12.38;;;2.70;99.90;;;;;;5008490;28;20755;-53
2021/01/14 07:48:50;;;;;;;24.10;12.50;;;2.50;99.90;;;;;;5000192;28;20859;-54
2021/01/14 07:51:16;;;;;;;21.50;11.75;;;2.60;99.90;;;;;;5008899;28;20849;-54
2021/01/14 07:53:42;;;;;;;19.05;11.27;;;4.20;99.90;;;;;;5010605;28;20405;-54
2021/01/14 07:56:25;;;;;;;18.00;11.18;;;3.60;99.90;;;;;;5010764;28;21371;-54
2021/01/14 07:58:58;;;;;;;19.60;11.20;;;3.20;99.90;;;;;;5009650;28;20507;-53
2021/01/14 08:01:25;;;;;;;28.10;14.35;;;5.50;99.90;;;;;;5010319;28;20406;-54
2021/01/14 08:03:50;;;;;;;22.75;11.90;;;2.70;99.90;;;;;;5009569;28;20405;-54
2021/01/14 08:06:22;;;;;;;23.23;12.60;;;2.60;99.90;;;;;;5011310;28;20484;-53
2021/01/14 08:09:02;;;;;;;19.30;11.35;;;2.70;99.90;;;;;;5009168;28;20416;-53
2021/01/14 08:11:35;;;;;;;42.38;21.33;;;2.80;99.90;;;;;;5009432;28;20429;-54
2021/01/14 08:14:11;;;;;;;27.63;14.23;;;2.80;99.90;;;;;;5010672;28;20435;-54
2021/01/14 08:16:44;;;;;;;28.63;14.80;;;2.80;99.90;;;;;;5009191;28;20955;-54
2021/01/14 08:19:16;;;;;;;25.48;14.32;;;2.80;99.90;;;;;;5004297;28;20420;-54
2021/01/14 08:22:07;;;;;;;29.60;16.10;;;4.50;99.90;;;;;;5007804;28;20436;-54
2021/01/14 08:24:45;;;;;;;18.58;11.45;;;2.90;99.90;;;;;;5008682;28;20479;-53
2021/01/14 08:27:21;;;;;;;20.08;11.68;;;5.10;99.90;;;;;;5009594;28;20442;-54
2021/01/14 08:29:56;;;;;;;20.05;11.82;;;2.60;99.90;;;;;;5006066;28;20441;-54
2021/01/14 08:32:36;;;;;;;30.52;15.65;;;2.50;99.90;;;;;;5010658;28;20451;-54
2021/01/14 08:35:17;;;;;;;22.55;12.50;;;2.60;99.90;;;;;;5009432;28;20405;-53
2021/01/14 08:37:42;;;;;;;23.10;13.00;;;2.70;99.90;;;;;;5009213;28;20389;-54
2021/01/14 08:40:11;;;;;;;24.47;13.90;;;2.70;99.90;;;;;;5008967;28;20420;-53
2021/01/14 08:42:41;;;;;;;33.83;18.08;;;2.80;99.90;;;;;;5007524;28;20415;-53
2021/01/14 08:45:10;;;;;;;22.53;13.63;;;3.90;99.90;;;;;;5010035;28;20377;-54
2021/01/14 08:47:51;;;;;;;26.60;15.00;;;2.90;99.90;;;;;;5008315;28;20397;-52
2021/01/14 08:50:37;;;;;;;25.73;13.35;;;2.90;99.90;;;;;;5006807;28;20496;-53
2021/01/14 08:53:19;;;;;;;24.10;14.10;;;2.90;99.90;;;;;;5007886;28;20829;-52
2021/01/14 08:55:58;;;;;;;25.80;14.17;;;2.80;99.90;;;;;;5007798;28;20451;-52
2021/01/14 08:58:44;;;;;;;27.43;16.10;;;4.50;99.90;;;;;;5007503;28;20400;-53
2021/01/14 09:01:26;;;;;;;23.88;13.52;;;2.60;99.90;;;;;;5007955;28;20401;-52
2021/01/14 09:03:56;;;;;;;27.00;15.57;;;2.60;99.90;;;;;;5007521;28;20417;-52
2021/01/14 09:06:30;;;;;;;24.92;15.60;;;3.80;99.90;;;;;;5008537;28;20404;-53
2021/01/14 09:08:57;;;;;;;30.63;17.83;;;2.80;99.90;;;;;;5009257;28;20603;-53
2021/01/14 09:11:27;;;;;;;27.90;15.68;;;2.90;99.90;;;;;;5006321;28;20905;-52
2021/01/14 09:14:10;;;;;;;34.33;18.10;;;3.00;99.90;;;;;;5009181;28;20439;-53
2021/01/14 09:16:37;;;;;;;25.25;15.23;;;2.90;99.90;;;;;;5007635;28;20925;-53
2021/01/14 09:19:14;;;;;;;24.55;14.88;;;2.90;99.90;;;;;;5009433;28;20416;-52
2021/01/14 09:21:40;;;;;;;29.05;16.92;;;2.80;99.90;;;;;;5006286;28;20897;-52
2021/01/14 09:24:08;;;;;;;22.67;13.52;;;3.40;99.90;;;;;;5009860;28;20373;-53
2021/01/14 09:26:34;;;;;;;32.78;18.15;;;2.80;99.90;;;;;;5005350;28;20401;-53
2021/01/14 09:29:00;;;;;;;31.48;17.40;;;5.30;99.90;;;;;;5009683;28;20803;-53
2021/01/14 09:31:29;;;;;;;24.83;14.57;;;3.00;99.90;;;;;;5007206;28;20785;-53
2021/01/14 09:33:58;;;;;;;36.25;19.27;;;3.20;99.90;;;;;;5007051;28;21064;-53
2021/01/14 09:36:24;;;;;;;36.67;20.00;;;3.30;99.90;;;;;;5008057;28;20487;-53
2021/01/14 09:38:58;;;;;;;31.60;17.33;;;3.20;99.90;;;;;;5009042;28;20432;-53
2021/01/14 09:41:38;;;;;;;32.70;17.25;;;5.20;99.90;;;;;;5010127;28;20480;-53
2021/01/14 09:44:13;;;;;;;27.33;15.40;;;3.00;99.90;;;;;;5006442;28;20409;-53
2021/01/14 09:46:46;;;;;;;25.93;13.00;;;3.00;99.90;;;;;;5006732;28;20447;-53
2021/01/14 09:49:14;;;;;;;32.53;17.17;;;2.80;99.90;;;;;;5007733;28;20451;-53
2021/01/14 09:51:41;;;;;;;38.80;18.45;;;2.70;99.90;;;;;;5008482;28;20428;-52
2021/01/14 09:54:08;;;;;;;35.25;17.02;;;2.80;99.90;;;;;;5009713;28;20392;-52
2021/01/14 09:56:42;;;;;;;65.70;29.00;;;2.90;99.90;;;;;;5007449;28;20408;-53
2021/01/14 09:59:24;;;;;;;29.70;15.65;;;3.00;99.90;;;;;;5009394;28;20910;-52
2021/01/14 10:02:00;;;;;;;28.30;14.82;;;4.40;99.90;;;;;;5006777;28;20396;-53
2021/01/14 10:04:27;;;;;;;23.88;13.65;;;3.20;99.90;;;;;;5009638;28;20818;-53
2021/01/14 10:07:05;;;;;;;28.27;15.60;;;3.10;99.90;;;;;;5007185;28;20397;-53
2021/01/14 10:09:35;;;;;;;20.58;12.13;;;3.00;99.90;;;;;;5002612;28;20595;-53
2021/01/14 10:12:06;;;;;;;21.27;12.73;;;2.90;99.90;;;;;;5004617;28;20425;-53
2021/01/14 10:14:32;;;;;;;18.85;11.23;;;2.80;99.90;;;;;;5008152;28;20917;-53
2021/01/14 10:17:11;;;;;;;21.10;12.10;;;2.80;99.90;;;;;;4998656;28;20476;-53
2021/01/14 10:19:46;;;;;;;21.90;13.20;;;2.80;99.90;;;;;;5001537;28;20513;-53
2021/01/14 10:22:11;;;;;;;22.15;12.70;;;2.90;99.90;;;;;;5008105;28;20429;-53
2021/01/14 10:24:37;;;;;;;22.92;12.10;;;2.90;99.90;;;;;;5006117;28;20428;-53
2021/01/14 10:27:21;;;;;;;19.70;11.50;;;2.90;99.90;;;;;;5003645;28;20398;-53
2021/01/14 10:29:48;;;;;;;19.05;11.50;;;2.80;99.90;;;;;;5005895;28;20401;-54
2021/01/14 10:32:17;;;;;;;20.73;12.48;;;5.00;99.90;;;;;;5007111;28;20405;-52
2021/01/14 10:34:53;;;;;;;20.02;11.63;;;3.90;99.90;;;;;;5006282;28;20486;-53
2021/01/14 10:37:22;;;;;;;23.48;12.20;;;3.30;99.90;;;;;;5009130;28;20382;-52
2021/01/14 10:39:49;;;;;;;22.08;12.10;;;4.30;99.90;;;;;;5003829;28;20933;-53
2021/01/14 10:42:31;;;;;;;18.85;11.10;;;3.30;99.90;;;;;;5009276;28;20735;-53
2021/01/14 10:44:58;;;;;;;20.48;11.95;;;3.10;99.90;;;;;;5007113;28;20397;-53
2021/01/14 10:47:24;;;;;;;22.98;12.10;;;3.10;99.90;;;;;;5009571;28;20392;-53
2021/01/14 10:49:49;;;;;;;20.05;11.13;;;3.20;99.90;;;;;;5008184;28;20428;-53
2021/01/14 10:52:15;;;;;;;20.03;11.47;;;3.20;99.90;;;;;;5007467;28;20392;-52
2021/01/14 10:54:41;;;;;;;17.98;10.35;;;5.70;99.90;;;;;;5008290;28;20420;-53
2021/01/14 10:57:07;;;;;;;18.63;9.77;;;5.70;99.90;;;;;;5007714;28;20397;-53
2021/01/14 10:59:33;;;;;;;24.03;11.37;;;3.50;99.90;;;;;;5008822;28;20413;-52
2021/01/14 11:02:06;;;;;;;21.10;10.70;;;5.70;99.90;;;;;;5006864;28;20503;-52
2021/01/14 11:04:32;;;;;;;23.33;11.30;;;3.10;99.90;;;;;;5010495;28;20398;-52
2021/01/14 11:06:58;;;;;;;20.30;10.40;;;3.10;99.90;;;;;;5010903;28;20392;-53
2021/01/14 11:09:24;;;;;;;21.00;11.27;;;3.10;99.90;;;;;;5008938;28;20420;-53
2021/01/14 11:11:50;;;;;;;20.20;10.60;;;3.20;99.90;;;;;;5008599;28;20396;-53
2021/01/14 11:14:19;;;;;;;19.15;9.95;;;3.40;99.90;;;;;;5008232;28;20413;-53
2021/01/14 11:16:44;;;;;;;15.13;9.20;;;3.50;99.90;;;;;;4990327;28;20397;-53
2021/01/14 11:19:10;;;;;;;16.40;9.40;;;3.80;99.90;;;;;;5005771;28;20408;-53
2021/01/14 11:21:37;;;;;;;18.05;9.20;;;3.30;99.90;;;;;;5010162;28;20905;-52
2021/01/14 11:24:06;;;;;;;18.45;8.88;;;4.20;99.90;;;;;;5010512;28;20407;-54
2021/01/14 11:26:31;;;;;;;15.60;9.10;;;3.40;99.90;;;;;;5009967;28;20436;-52
2021/01/14 11:28:57;;;;;;;16.93;9.47;;;3.20;99.90;;;;;;5010719;28;20420;-53
2021/01/14 11:31:25;;;;;;;14.15;9.10;;;3.40;99.90;;;;;;5010467;28;20882;-53
2021/01/14 11:33:51;;;;;;;15.23;8.50;;;3.60;99.90;;;;;;5011744;28;20412;-53
2021/01/14 11:36:21;;;;;;;15.00;8.13;;;3.80;99.90;;;;;;5012175;28;20416;-53
2021/01/14 11:38:48;;;;;;;14.88;7.93;;;4.00;99.90;;;;;;5011215;28;20498;-53
2021/01/14 11:41:18;;;;;;;15.07;8.82;;;6.40;99.90;;;;;;5012354;28;20385;-53
2021/01/14 11:43:44;;;;;;;22.95;11.10;;;5.60;99.90;;;;;;5011035;28;20751;-53
2021/01/14 11:46:10;;;;;;;29.27;12.80;;;4.10;99.90;;;;;;5012066;28;20385;-53
2021/01/14 11:48:35;;;;;;;17.30;9.20;;;4.40;99.90;;;;;;5011730;28;20933;-53
2021/01/14 11:51:01;;;;;;;22.17;10.13;;;4.70;99.90;;;;;;5011571;28;20916;-53
2021/01/14 11:53:27;;;;;;;22.80;10.77;;;6.00;99.90;;;;;;5012043;28;20389;-53
2021/01/14 11:55:52;;;;;;;15.50;7.47;;;4.10;99.90;;;;;;5010727;28;20870;-53
2021/01/14 11:58:18;;;;;;;16.75;8.13;;;5.20;99.90;;;;;;5011735;28;20389;-53
2021/01/14 12:00:44;;;;;;;13.47;6.50;;;4.20;99.90;;;;;;5010106;28;20512;-53
2021/01/14 12:03:10;;;;;;;15.30;6.70;;;4.20;99.90;;;;;;5011789;28;20396;-53
2021/01/14 12:05:35;;;;;;;12.90;7.30;;;4.20;99.90;;;;;;5011023;28;20401;-53
2021/01/14 12:08:02;;;;;;;14.00;6.28;;;4.30;99.90;;;;;;5002535;28;20801;-53
2021/01/14 12:10:28;;;;;;;13.00;6.32;;;4.30;99.90;;;;;;5009251;28;20389;-53
2021/01/14 12:12:54;;;;;;;10.75;5.68;;;4.40;99.90;;;;;;5009476;28;20847;-53
2021/01/14 12:15:20;;;;;;;10.60;5.30;;;4.30;99.90;;;;;;5010169;28;20405;-53
2021/01/14 12:17:45;;;;;;;12.70;6.65;;;4.40;99.90;;;;;;5008963;28;20400;-53
2021/01/14 12:20:11;;;;;;;11.40;6.07;;;4.40;99.90;;;;;;5011454;28;20420;-53
2021/01/14 12:22:41;;;;;;;12.77;6.10;;;4.40;99.90;;;;;;5011535;28;20478;-53
2021/01/14 12:25:09;;;;;;;12.65;6.10;;;5.50;99.90;;;;;;5010280;28;20443;-53
2021/01/14 12:27:34;;;;;;;13.53;6.20;;;4.40;99.90;;;;;;5011933;28;20790;-53
2021/01/14 12:30:00;;;;;;;12.83;5.70;;;4.50;99.90;;;;;;5010742;28;20451;-53
2021/01/14 12:32:26;;;;;;;13.38;5.70;;;6.50;99.90;;;;;;5011633;28;20483;-53
2021/01/14 12:34:53;;;;;;;10.90;6.00;;;5.60;99.90;;;;;;5011695;28;20841;-53
2021/01/14 12:37:19;;;;;;;10.60;5.40;;;6.00;99.90;;;;;;5011985;28;20377;-53
2021/01/14 12:39:45;;;;;;;10.80;6.10;;;6.00;99.90;;;;;;5010680;28;20478;-53
2021/01/14 12:42:11;;;;;;;10.85;5.90;;;4.00;99.90;;;;;;5011228;28;20397;-53
2021/01/14 12:44:37;;;;;;;11.20;5.55;;;4.10;99.90;;;;;;5008850;28;20389;-53
2021/01/14 12:47:03;;;;;;;11.55;5.82;;;6.20;99.90;;;;;;5010997;28;20419;-53
2021/01/14 12:49:29;;;;;;;12.07;6.20;;;4.10;99.90;;;;;;5010840;28;20396;-53
2021/01/14 12:51:54;;;;;;;15.25;6.10;;;4.20;99.90;;;;;;5010402;28;20381;-53
2021/01/14 12:54:22;;;;;;;11.27;6.20;;;4.50;99.90;;;;;;5010415;28;20424;-53
2021/01/14 12:56:47;;;;;;;12.18;6.25;;;4.10;99.90;;;;;;5009801;28;20393;-53
2021/01/14 12:59:13;;;;;;;13.40;5.80;;;4.10;99.90;;;;;;5010420;28;20409;-53
2021/01/14 13:01:39;;;;;;;11.15;6.20;;;4.20;99.90;;;;;;5010017;28;20416;-53